sensor_id;sensor_type;location;lat;lon;timestamp;P1;durP1;ratioP1;P2;durP2;ratioP2
9898;SDS011;4988;49.238;6.698;2023-04-29T00:02:17;3.90;;;2.70;;
9898;SDS011;4988;49.238;6.698;2023-04-29T00:04:42;4.33;;;2.40;;
9898;SDS011;4988;49.238;6.698;2023-04-29T00:07:07;2.80;;;2.50;;
9898;SDS011;4988;49.238;6.698;2023-04-29T00:09:33;2.70;;;2.50;;
9898;SDS011;4988;49.238;6.698;2023-04-29T00:11:58;3.07;;;2.50;;
9898;SDS011;4988;49.238;6.698;2023-04-29T00:14:23;3.27;;;2.50;;
9898;SDS011;4988;49.238;6.698;2023-04-29T00:16:49;3.63;;;2.30;;
9898;SDS011;4988;49.238;6.698;2023-04-29T00:19:14;2.67;;;2.40;;
9898;SDS011;4988;49.238;6.698;2023-04-29T00:21:40;5.60;;;2.10;;
9898;SDS011;4988;49.238;6.698;2023-04-29T00:24:05;2.47;;;2.00;;
9898;SDS011;4988;49.238;6.698;2023-04-29T00:26:31;4.70;;;2.50;;
9898;SDS011;4988;49.238;6.698;2023-04-29T00:28:56;2.77;;;2.23;;
9898;SDS011;4988;49.238;6.698;2023-04-29T00:31:21;2.63;;;2.37;;
9898;SDS011;4988;49.238;6.698;2023-04-29T00:33:47;2.93;;;2.27;;
9898;SDS011;4988;49.238;6.698;2023-04-29T00:36:12;3.27;;;2.50;;
9898;SDS011;4988;49.238;6.698;2023-04-29T00:38:38;2.73;;;2.40;;
9898;SDS011;4988;49.238;6.698;2023-04-29T00:41:03;3.00;;;2.43;;
9898;SDS011;4988;49.238;6.698;2023-04-29T00:43:29;2.37;;;2.17;;
9898;SDS011;4988;49.238;6.698;2023-04-29T00:45:54;2.73;;;2.33;;
9898;SDS011;4988;49.238;6.698;2023-04-29T00:48:19;4.43;;;2.37;;
9898;SDS011;4988;49.238;6.698;2023-04-29T00:50:44;2.40;;;2.20;;
9898;SDS011;4988;49.238;6.698;2023-04-29T00:53:10;2.80;;;2.47;;
9898;SDS011;4988;49.238;6.698;2023-04-29T00:55:36;2.60;;;2.40;;
9898;SDS011;4988;49.238;6.698;2023-04-29T00:58:02;3.07;;;2.50;;
9898;SDS011;4988;49.238;6.698;2023-04-29T01:00:28;3.27;;;2.40;;
9898;SDS011;4988;49.238;6.698;2023-04-29T01:02:54;4.53;;;2.23;;
9898;SDS011;4988;49.238;6.698;2023-04-29T01:05:21;2.53;;;2.33;;
9898;SDS011;4988;49.238;6.698;2023-04-29T01:07:50;2.90;;;2.50;;
9898;SDS011;4988;49.238;6.698;2023-04-29T01:10:38;2.50;;;2.30;;
9898;SDS011;4988;49.238;6.698;2023-04-29T01:13:08;2.60;;;2.40;;
9898;SDS011;4988;49.238;6.698;2023-04-29T01:15:56;3.23;;;2.50;;
9898;SDS011;4988;49.238;6.698;2023-04-29T01:18:28;2.73;;;2.47;;
9898;SDS011;4988;49.238;6.698;2023-04-29T01:20:57;3.70;;;2.23;;
9898;SDS011;4988;49.238;6.698;2023-04-29T01:23:28;4.00;;;2.53;;
9898;SDS011;4988;49.238;6.698;2023-04-29T01:25:55;3.33;;;2.47;;
9898;SDS011;4988;49.238;6.698;2023-04-29T01:36:25;5.70;;;2.80;;
9898;SDS011;4988;49.238;6.698;2023-04-29T01:41:34;2.80;;;2.57;;
9898;SDS011;4988;49.238;6.698;2023-04-29T01:44:12;3.00;;;2.63;;
9898;SDS011;4988;49.238;6.698;2023-04-29T01:46:41;3.57;;;2.43;;
9898;SDS011;4988;49.238;6.698;2023-04-29T01:49:08;3.23;;;2.93;;
9898;SDS011;4988;49.238;6.698;2023-04-29T01:51:33;2.30;;;2.10;;
9898;SDS011;4988;49.238;6.698;2023-04-29T01:53:58;3.33;;;2.60;;
9898;SDS011;4988;49.238;6.698;2023-04-29T01:56:24;2.70;;;2.20;;
9898;SDS011;4988;49.238;6.698;2023-04-29T01:58:49;3.17;;;2.30;;
9898;SDS011;4988;49.238;6.698;2023-04-29T02:01:15;2.33;;;1.97;;
9898;SDS011;4988;49.238;6.698;2023-04-29T02:03:40;2.40;;;2.20;;
9898;SDS011;4988;49.238;6.698;2023-04-29T02:06:05;4.83;;;2.40;;
9898;SDS011;4988;49.238;6.698;2023-04-29T02:08:33;4.87;;;2.57;;
9898;SDS011;4988;49.238;6.698;2023-04-29T02:10:59;2.93;;;2.30;;
9898;SDS011;4988;49.238;6.698;2023-04-29T02:13:24;3.13;;;2.50;;
9898;SDS011;4988;49.238;6.698;2023-04-29T02:15:50;3.83;;;2.73;;
9898;SDS011;4988;49.238;6.698;2023-04-29T02:18:16;7.47;;;3.10;;
9898;SDS011;4988;49.238;6.698;2023-04-29T02:20:41;3.57;;;2.80;;
9898;SDS011;4988;49.238;6.698;2023-04-29T02:23:07;4.97;;;3.00;;
9898;SDS011;4988;49.238;6.698;2023-04-29T02:25:32;4.03;;;2.70;;
9898;SDS011;4988;49.238;6.698;2023-04-29T02:27:58;5.60;;;3.70;;
9898;SDS011;4988;49.238;6.698;2023-04-29T02:30:23;3.43;;;2.90;;
9898;SDS011;4988;49.238;6.698;2023-04-29T02:32:48;4.77;;;3.03;;
9898;SDS011;4988;49.238;6.698;2023-04-29T02:35:14;6.77;;;3.40;;
9898;SDS011;4988;49.238;6.698;2023-04-29T02:37:40;5.67;;;3.10;;
9898;SDS011;4988;49.238;6.698;2023-04-29T02:40:05;4.83;;;3.33;;
9898;SDS011;4988;49.238;6.698;2023-04-29T02:42:31;4.73;;;2.90;;
9898;SDS011;4988;49.238;6.698;2023-04-29T02:44:57;5.03;;;3.20;;
9898;SDS011;4988;49.238;6.698;2023-04-29T02:47:22;4.47;;;3.20;;
9898;SDS011;4988;49.238;6.698;2023-04-29T02:49:47;4.20;;;3.37;;
9898;SDS011;4988;49.238;6.698;2023-04-29T02:52:13;4.30;;;3.20;;
9898;SDS011;4988;49.238;6.698;2023-04-29T02:54:38;6.20;;;3.30;;
9898;SDS011;4988;49.238;6.698;2023-04-29T02:57:04;6.63;;;3.93;;
9898;SDS011;4988;49.238;6.698;2023-04-29T02:59:29;6.23;;;3.90;;
9898;SDS011;4988;49.238;6.698;2023-04-29T03:01:54;6.43;;;3.60;;
9898;SDS011;4988;49.238;6.698;2023-04-29T03:04:20;8.93;;;3.70;;
9898;SDS011;4988;49.238;6.698;2023-04-29T03:06:46;6.20;;;3.83;;
9898;SDS011;4988;49.238;6.698;2023-04-29T03:09:11;5.30;;;3.87;;
9898;SDS011;4988;49.238;6.698;2023-04-29T03:11:38;5.10;;;4.03;;
9898;SDS011;4988;49.238;6.698;2023-04-29T03:14:03;5.77;;;3.67;;
9898;SDS011;4988;49.238;6.698;2023-04-29T03:16:29;4.90;;;3.83;;
9898;SDS011;4988;49.238;6.698;2023-04-29T03:18:55;4.70;;;3.70;;
9898;SDS011;4988;49.238;6.698;2023-04-29T03:21:20;6.67;;;3.70;;
9898;SDS011;4988;49.238;6.698;2023-04-29T03:23:46;5.17;;;3.80;;
9898;SDS011;4988;49.238;6.698;2023-04-29T03:26:11;6.83;;;3.60;;
9898;SDS011;4988;49.238;6.698;2023-04-29T03:28:36;5.07;;;3.60;;
9898;SDS011;4988;49.238;6.698;2023-04-29T03:31:02;5.97;;;3.53;;
9898;SDS011;4988;49.238;6.698;2023-04-29T03:33:27;4.97;;;3.80;;
9898;SDS011;4988;49.238;6.698;2023-04-29T03:35:52;5.57;;;3.93;;
9898;SDS011;4988;49.238;6.698;2023-04-29T03:38:18;5.53;;;4.17;;
9898;SDS011;4988;49.238;6.698;2023-04-29T03:40:43;5.73;;;4.00;;
9898;SDS011;4988;49.238;6.698;2023-04-29T03:43:09;7.67;;;4.17;;
9898;SDS011;4988;49.238;6.698;2023-04-29T03:45:35;6.43;;;4.00;;
9898;SDS011;4988;49.238;6.698;2023-04-29T03:48:01;5.27;;;4.00;;
9898;SDS011;4988;49.238;6.698;2023-04-29T03:50:27;7.73;;;4.50;;
9898;SDS011;4988;49.238;6.698;2023-04-29T03:52:53;6.13;;;4.60;;
9898;SDS011;4988;49.238;6.698;2023-04-29T03:55:18;5.53;;;4.20;;
9898;SDS011;4988;49.238;6.698;2023-04-29T03:57:44;6.47;;;4.57;;
9898;SDS011;4988;49.238;6.698;2023-04-29T04:00:09;6.70;;;5.10;;
9898;SDS011;4988;49.238;6.698;2023-04-29T04:02:35;6.90;;;4.83;;
9898;SDS011;4988;49.238;6.698;2023-04-29T04:05:00;7.43;;;4.90;;
9898;SDS011;4988;49.238;6.698;2023-04-29T04:07:26;8.53;;;4.80;;
9898;SDS011;4988;49.238;6.698;2023-04-29T04:09:51;9.07;;;5.83;;
9898;SDS011;4988;49.238;6.698;2023-04-29T04:12:16;11.07;;;5.80;;
9898;SDS011;4988;49.238;6.698;2023-04-29T04:14:41;8.70;;;6.17;;
9898;SDS011;4988;49.238;6.698;2023-04-29T04:17:07;8.00;;;5.37;;
9898;SDS011;4988;49.238;6.698;2023-04-29T04:19:32;7.50;;;5.17;;
9898;SDS011;4988;49.238;6.698;2023-04-29T04:21:57;7.60;;;5.43;;
9898;SDS011;4988;49.238;6.698;2023-04-29T04:24:23;8.77;;;6.13;;
9898;SDS011;4988;49.238;6.698;2023-04-29T04:26:48;10.87;;;6.20;;
9898;SDS011;4988;49.238;6.698;2023-04-29T04:29:13;12.47;;;6.47;;
9898;SDS011;4988;49.238;6.698;2023-04-29T04:31:39;11.17;;;6.47;;
9898;SDS011;4988;49.238;6.698;2023-04-29T04:34:04;12.60;;;6.50;;
9898;SDS011;4988;49.238;6.698;2023-04-29T04:36:30;11.03;;;6.80;;
9898;SDS011;4988;49.238;6.698;2023-04-29T04:38:56;10.47;;;5.93;;
9898;SDS011;4988;49.238;6.698;2023-04-29T04:41:22;10.90;;;6.37;;
9898;SDS011;4988;49.238;6.698;2023-04-29T04:43:47;10.13;;;5.83;;
9898;SDS011;4988;49.238;6.698;2023-04-29T04:46:14;12.20;;;6.70;;
9898;SDS011;4988;49.238;6.698;2023-04-29T04:48:41;14.63;;;7.17;;
9898;SDS011;4988;49.238;6.698;2023-04-29T04:51:07;14.20;;;7.03;;
9898;SDS011;4988;49.238;6.698;2023-04-29T04:53:37;12.67;;;6.70;;
9898;SDS011;4988;49.238;6.698;2023-04-29T04:56:02;11.77;;;6.83;;
9898;SDS011;4988;49.238;6.698;2023-04-29T04:58:28;12.63;;;7.07;;
9898;SDS011;4988;49.238;6.698;2023-04-29T05:00:55;15.63;;;6.93;;
9898;SDS011;4988;49.238;6.698;2023-04-29T05:03:21;11.97;;;6.50;;
9898;SDS011;4988;49.238;6.698;2023-04-29T05:05:51;11.37;;;7.00;;
9898;SDS011;4988;49.238;6.698;2023-04-29T05:08:20;12.30;;;6.47;;
9898;SDS011;4988;49.238;6.698;2023-04-29T05:10:45;11.53;;;6.73;;
9898;SDS011;4988;49.238;6.698;2023-04-29T05:13:11;13.17;;;6.77;;
9898;SDS011;4988;49.238;6.698;2023-04-29T05:15:36;12.63;;;6.57;;
9898;SDS011;4988;49.238;6.698;2023-04-29T05:18:01;11.93;;;7.00;;
9898;SDS011;4988;49.238;6.698;2023-04-29T05:20:27;12.20;;;6.53;;
9898;SDS011;4988;49.238;6.698;2023-04-29T05:22:52;12.00;;;7.07;;
9898;SDS011;4988;49.238;6.698;2023-04-29T05:25:17;13.77;;;6.43;;
9898;SDS011;4988;49.238;6.698;2023-04-29T05:27:43;12.13;;;7.00;;
9898;SDS011;4988;49.238;6.698;2023-04-29T05:30:08;13.10;;;6.33;;
9898;SDS011;4988;49.238;6.698;2023-04-29T05:32:33;12.83;;;6.33;;
9898;SDS011;4988;49.238;6.698;2023-04-29T05:34:59;13.03;;;6.40;;
9898;SDS011;4988;49.238;6.698;2023-04-29T05:37:24;14.83;;;6.33;;
9898;SDS011;4988;49.238;6.698;2023-04-29T05:39:55;10.30;;;6.20;;
9898;SDS011;4988;49.238;6.698;2023-04-29T05:42:21;14.23;;;7.07;;
9898;SDS011;4988;49.238;6.698;2023-04-29T05:44:47;12.63;;;6.80;;
9898;SDS011;4988;49.238;6.698;2023-04-29T05:47:13;12.53;;;6.83;;
9898;SDS011;4988;49.238;6.698;2023-04-29T05:49:38;12.77;;;7.00;;
9898;SDS011;4988;49.238;6.698;2023-04-29T05:52:04;13.40;;;7.17;;
9898;SDS011;4988;49.238;6.698;2023-04-29T05:54:31;13.53;;;7.13;;
9898;SDS011;4988;49.238;6.698;2023-04-29T05:56:57;10.90;;;6.53;;
9898;SDS011;4988;49.238;6.698;2023-04-29T05:59:22;11.17;;;6.30;;
9898;SDS011;4988;49.238;6.698;2023-04-29T06:01:47;12.67;;;6.43;;
9898;SDS011;4988;49.238;6.698;2023-04-29T06:04:13;10.07;;;6.10;;
9898;SDS011;4988;49.238;6.698;2023-04-29T06:06:38;11.77;;;6.27;;
9898;SDS011;4988;49.238;6.698;2023-04-29T06:09:03;13.13;;;5.80;;
9898;SDS011;4988;49.238;6.698;2023-04-29T06:11:29;9.13;;;5.63;;
9898;SDS011;4988;49.238;6.698;2023-04-29T06:13:55;9.67;;;5.90;;
9898;SDS011;4988;49.238;6.698;2023-04-29T06:16:21;10.27;;;6.10;;
9898;SDS011;4988;49.238;6.698;2023-04-29T06:18:46;11.00;;;6.33;;
9898;SDS011;4988;49.238;6.698;2023-04-29T06:21:12;12.43;;;6.60;;
9898;SDS011;4988;49.238;6.698;2023-04-29T06:23:37;10.50;;;6.40;;
9898;SDS011;4988;49.238;6.698;2023-04-29T06:26:02;10.73;;;6.87;;
9898;SDS011;4988;49.238;6.698;2023-04-29T06:28:28;12.67;;;7.10;;
9898;SDS011;4988;49.238;6.698;2023-04-29T06:30:53;15.23;;;7.40;;
9898;SDS011;4988;49.238;6.698;2023-04-29T06:33:19;16.00;;;7.00;;
9898;SDS011;4988;49.238;6.698;2023-04-29T06:35:44;11.70;;;6.53;;
9898;SDS011;4988;49.238;6.698;2023-04-29T06:38:10;14.40;;;6.53;;
9898;SDS011;4988;49.238;6.698;2023-04-29T06:40:35;11.70;;;6.50;;
9898;SDS011;4988;49.238;6.698;2023-04-29T06:43:00;14.50;;;6.67;;
9898;SDS011;4988;49.238;6.698;2023-04-29T06:45:26;13.10;;;7.10;;
9898;SDS011;4988;49.238;6.698;2023-04-29T06:47:52;14.87;;;7.33;;
9898;SDS011;4988;49.238;6.698;2023-04-29T06:50:17;13.40;;;8.27;;
9898;SDS011;4988;49.238;6.698;2023-04-29T06:52:42;12.57;;;7.40;;
9898;SDS011;4988;49.238;6.698;2023-04-29T06:55:08;14.53;;;6.90;;
9898;SDS011;4988;49.238;6.698;2023-04-29T06:57:35;13.93;;;7.90;;
9898;SDS011;4988;49.238;6.698;2023-04-29T07:00:00;11.77;;;7.30;;
9898;SDS011;4988;49.238;6.698;2023-04-29T07:02:26;14.17;;;7.20;;
9898;SDS011;4988;49.238;6.698;2023-04-29T07:04:52;12.60;;;6.83;;
9898;SDS011;4988;49.238;6.698;2023-04-29T07:07:17;11.30;;;6.63;;
9898;SDS011;4988;49.238;6.698;2023-04-29T07:09:43;12.07;;;6.40;;
9898;SDS011;4988;49.238;6.698;2023-04-29T07:12:08;11.30;;;6.03;;
9898;SDS011;4988;49.238;6.698;2023-04-29T07:14:34;10.50;;;5.93;;
9898;SDS011;4988;49.238;6.698;2023-04-29T07:17:01;10.27;;;6.23;;
9898;SDS011;4988;49.238;6.698;2023-04-29T07:19:26;9.83;;;6.20;;
9898;SDS011;4988;49.238;6.698;2023-04-29T07:21:52;10.17;;;6.37;;
9898;SDS011;4988;49.238;6.698;2023-04-29T07:24:17;10.60;;;6.20;;
9898;SDS011;4988;49.238;6.698;2023-04-29T07:26:43;11.17;;;6.90;;
9898;SDS011;4988;49.238;6.698;2023-04-29T07:29:11;11.03;;;6.53;;
9898;SDS011;4988;49.238;6.698;2023-04-29T07:31:37;12.40;;;7.67;;
9898;SDS011;4988;49.238;6.698;2023-04-29T07:34:02;12.67;;;6.97;;
9898;SDS011;4988;49.238;6.698;2023-04-29T07:36:28;13.07;;;6.67;;
9898;SDS011;4988;49.238;6.698;2023-04-29T07:38:59;11.47;;;6.63;;
9898;SDS011;4988;49.238;6.698;2023-04-29T07:41:42;11.13;;;6.70;;
9898;SDS011;4988;49.238;6.698;2023-04-29T07:44:16;12.47;;;6.93;;
9898;SDS011;4988;49.238;6.698;2023-04-29T07:46:42;15.77;;;7.67;;
9898;SDS011;4988;49.238;6.698;2023-04-29T07:49:07;11.03;;;7.10;;
9898;SDS011;4988;49.238;6.698;2023-04-29T07:51:33;12.80;;;6.73;;
9898;SDS011;4988;49.238;6.698;2023-04-29T07:53:58;13.93;;;7.53;;
9898;SDS011;4988;49.238;6.698;2023-04-29T07:56:23;11.67;;;7.00;;
9898;SDS011;4988;49.238;6.698;2023-04-29T07:58:48;12.47;;;6.47;;
9898;SDS011;4988;49.238;6.698;2023-04-29T08:01:14;11.47;;;6.40;;
9898;SDS011;4988;49.238;6.698;2023-04-29T08:03:39;12.17;;;6.97;;
9898;SDS011;4988;49.238;6.698;2023-04-29T08:06:05;13.13;;;7.97;;
9898;SDS011;4988;49.238;6.698;2023-04-29T08:08:31;17.87;;;7.37;;
9898;SDS011;4988;49.238;6.698;2023-04-29T08:10:56;13.43;;;7.13;;
9898;SDS011;4988;49.238;6.698;2023-04-29T08:13:22;13.63;;;7.40;;
9898;SDS011;4988;49.238;6.698;2023-04-29T08:15:48;14.03;;;7.93;;
9898;SDS011;4988;49.238;6.698;2023-04-29T08:18:13;14.93;;;8.20;;
9898;SDS011;4988;49.238;6.698;2023-04-29T08:20:39;14.70;;;8.27;;
9898;SDS011;4988;49.238;6.698;2023-04-29T08:23:04;13.33;;;7.90;;
9898;SDS011;4988;49.238;6.698;2023-04-29T08:25:30;13.60;;;8.00;;
9898;SDS011;4988;49.238;6.698;2023-04-29T08:27:55;16.43;;;9.03;;
9898;SDS011;4988;49.238;6.698;2023-04-29T08:30:21;14.33;;;8.13;;
9898;SDS011;4988;49.238;6.698;2023-04-29T08:32:47;16.87;;;8.30;;
9898;SDS011;4988;49.238;6.698;2023-04-29T08:35:12;13.80;;;7.80;;
9898;SDS011;4988;49.238;6.698;2023-04-29T08:37:38;12.67;;;7.60;;
9898;SDS011;4988;49.238;6.698;2023-04-29T08:40:03;13.03;;;8.13;;
9898;SDS011;4988;49.238;6.698;2023-04-29T08:42:34;16.43;;;8.33;;
9898;SDS011;4988;49.238;6.698;2023-04-29T08:45:02;15.03;;;8.13;;
9898;SDS011;4988;49.238;6.698;2023-04-29T08:47:31;15.53;;;8.67;;
9898;SDS011;4988;49.238;6.698;2023-04-29T08:50:00;17.40;;;8.93;;
9898;SDS011;4988;49.238;6.698;2023-04-29T08:52:28;16.00;;;8.57;;
9898;SDS011;4988;49.238;6.698;2023-04-29T08:54:56;16.40;;;8.33;;
9898;SDS011;4988;49.238;6.698;2023-04-29T08:57:22;18.90;;;8.60;;
9898;SDS011;4988;49.238;6.698;2023-04-29T08:59:49;17.00;;;8.97;;
9898;SDS011;4988;49.238;6.698;2023-04-29T09:02:15;16.87;;;8.60;;
9898;SDS011;4988;49.238;6.698;2023-04-29T09:04:57;17.77;;;8.77;;
9898;SDS011;4988;49.238;6.698;2023-04-29T09:07:28;17.30;;;9.20;;
9898;SDS011;4988;49.238;6.698;2023-04-29T09:09:55;16.90;;;8.77;;
9898;SDS011;4988;49.238;6.698;2023-04-29T09:12:22;15.90;;;8.87;;
9898;SDS011;4988;49.238;6.698;2023-04-29T09:14:48;19.40;;;9.50;;
9898;SDS011;4988;49.238;6.698;2023-04-29T09:17:13;26.30;;;10.87;;
9898;SDS011;4988;49.238;6.698;2023-04-29T09:19:40;21.77;;;10.57;;
9898;SDS011;4988;49.238;6.698;2023-04-29T09:22:06;19.60;;;10.63;;
9898;SDS011;4988;49.238;6.698;2023-04-29T09:24:32;23.27;;;11.63;;
9898;SDS011;4988;49.238;6.698;2023-04-29T09:26:58;24.30;;;11.40;;
9898;SDS011;4988;49.238;6.698;2023-04-29T09:29:24;21.13;;;11.20;;
9898;SDS011;4988;49.238;6.698;2023-04-29T09:31:49;20.53;;;10.67;;
9898;SDS011;4988;49.238;6.698;2023-04-29T09:34:52;24.00;;;11.20;;
9898;SDS011;4988;49.238;6.698;2023-04-29T09:37:23;21.37;;;10.37;;
9898;SDS011;4988;49.238;6.698;2023-04-29T09:39:51;20.90;;;10.50;;
9898;SDS011;4988;49.238;6.698;2023-04-29T09:42:16;22.57;;;10.77;;
9898;SDS011;4988;49.238;6.698;2023-04-29T09:44:42;18.93;;;10.30;;
9898;SDS011;4988;49.238;6.698;2023-04-29T09:47:09;21.10;;;10.57;;
9898;SDS011;4988;49.238;6.698;2023-04-29T09:49:38;21.53;;;10.17;;
9898;SDS011;4988;49.238;6.698;2023-04-29T09:52:06;21.23;;;9.87;;
9898;SDS011;4988;49.238;6.698;2023-04-29T09:54:34;19.67;;;9.70;;
9898;SDS011;4988;49.238;6.698;2023-04-29T09:57:00;19.33;;;9.77;;
9898;SDS011;4988;49.238;6.698;2023-04-29T09:59:26;21.60;;;9.73;;
9898;SDS011;4988;49.238;6.698;2023-04-29T10:01:55;19.37;;;9.47;;
9898;SDS011;4988;49.238;6.698;2023-04-29T10:04:23;19.13;;;8.80;;
9898;SDS011;4988;49.238;6.698;2023-04-29T10:06:50;19.20;;;8.67;;
9898;SDS011;4988;49.238;6.698;2023-04-29T10:09:17;19.97;;;9.37;;
9898;SDS011;4988;49.238;6.698;2023-04-29T10:11:44;16.90;;;8.70;;
9898;SDS011;4988;49.238;6.698;2023-04-29T10:14:11;17.87;;;8.87;;
9898;SDS011;4988;49.238;6.698;2023-04-29T10:19:24;19.40;;;8.23;;
9898;SDS011;4988;49.238;6.698;2023-04-29T10:21:52;14.70;;;7.67;;
9898;SDS011;4988;49.238;6.698;2023-04-29T10:24:19;17.80;;;7.87;;
9898;SDS011;4988;49.238;6.698;2023-04-29T10:26:45;16.63;;;8.70;;
9898;SDS011;4988;49.238;6.698;2023-04-29T10:29:13;15.40;;;7.50;;
9898;SDS011;4988;49.238;6.698;2023-04-29T10:31:41;18.80;;;8.17;;
9898;SDS011;4988;49.238;6.698;2023-04-29T10:34:07;14.30;;;7.23;;
9898;SDS011;4988;49.238;6.698;2023-04-29T10:36:33;15.77;;;6.97;;
9898;SDS011;4988;49.238;6.698;2023-04-29T10:39:00;15.07;;;7.13;;
9898;SDS011;4988;49.238;6.698;2023-04-29T10:41:36;13.83;;;7.10;;
9898;SDS011;4988;49.238;6.698;2023-04-29T10:44:06;14.63;;;7.30;;
9898;SDS011;4988;49.238;6.698;2023-04-29T10:46:32;13.60;;;7.57;;
9898;SDS011;4988;49.238;6.698;2023-04-29T10:49:03;14.03;;;7.17;;
9898;SDS011;4988;49.238;6.698;2023-04-29T10:51:43;16.67;;;8.20;;
9898;SDS011;4988;49.238;6.698;2023-04-29T10:54:15;18.90;;;8.07;;
9898;SDS011;4988;49.238;6.698;2023-04-29T10:56:43;16.53;;;7.90;;
9898;SDS011;4988;49.238;6.698;2023-04-29T10:59:14;13.93;;;7.03;;
9898;SDS011;4988;49.238;6.698;2023-04-29T11:02:00;16.63;;;7.43;;
9898;SDS011;4988;49.238;6.698;2023-04-29T11:04:26;14.47;;;7.23;;
9898;SDS011;4988;49.238;6.698;2023-04-29T11:06:52;15.23;;;6.63;;
9898;SDS011;4988;49.238;6.698;2023-04-29T11:17:01;14.63;;;7.27;;
9898;SDS011;4988;49.238;6.698;2023-04-29T11:19:35;18.40;;;7.40;;
9898;SDS011;4988;49.238;6.698;2023-04-29T11:24:48;16.90;;;8.23;;
9898;SDS011;4988;49.238;6.698;2023-04-29T11:27:18;14.70;;;7.63;;
9898;SDS011;4988;49.238;6.698;2023-04-29T11:29:46;15.53;;;7.83;;
9898;SDS011;4988;49.238;6.698;2023-04-29T11:32:13;13.90;;;7.67;;
9898;SDS011;4988;49.238;6.698;2023-04-29T11:34:39;15.77;;;7.57;;
9898;SDS011;4988;49.238;6.698;2023-04-29T11:37:04;12.40;;;6.60;;
9898;SDS011;4988;49.238;6.698;2023-04-29T11:39:32;12.93;;;7.07;;
9898;SDS011;4988;49.238;6.698;2023-04-29T11:42:05;12.77;;;6.80;;
9898;SDS011;4988;49.238;6.698;2023-04-29T11:44:34;14.20;;;6.70;;
9898;SDS011;4988;49.238;6.698;2023-04-29T11:47:03;12.23;;;5.87;;
9898;SDS011;4988;49.238;6.698;2023-04-29T11:49:32;12.00;;;6.10;;
9898;SDS011;4988;49.238;6.698;2023-04-29T11:51:59;11.83;;;6.27;;
9898;SDS011;4988;49.238;6.698;2023-04-29T11:54:25;13.23;;;5.83;;
9898;SDS011;4988;49.238;6.698;2023-04-29T11:56:54;10.87;;;5.73;;
9898;SDS011;4988;49.238;6.698;2023-04-29T11:59:20;18.30;;;9.73;;
9898;SDS011;4988;49.238;6.698;2023-04-29T12:01:46;10.57;;;6.33;;
9898;SDS011;4988;49.238;6.698;2023-04-29T12:04:12;15.83;;;6.70;;
9898;SDS011;4988;49.238;6.698;2023-04-29T12:06:38;12.60;;;6.20;;
9898;SDS011;4988;49.238;6.698;2023-04-29T12:09:03;13.07;;;6.57;;
9898;SDS011;4988;49.238;6.698;2023-04-29T12:11:28;12.70;;;7.00;;
9898;SDS011;4988;49.238;6.698;2023-04-29T12:13:54;11.63;;;7.00;;
9898;SDS011;4988;49.238;6.698;2023-04-29T12:16:21;12.87;;;6.40;;
9898;SDS011;4988;49.238;6.698;2023-04-29T12:18:48;9.83;;;5.90;;
9898;SDS011;4988;49.238;6.698;2023-04-29T12:21:15;10.00;;;5.60;;
9898;SDS011;4988;49.238;6.698;2023-04-29T12:23:41;10.00;;;5.70;;
9898;SDS011;4988;49.238;6.698;2023-04-29T12:26:06;10.47;;;5.90;;
9898;SDS011;4988;49.238;6.698;2023-04-29T12:28:33;12.53;;;5.27;;
9898;SDS011;4988;49.238;6.698;2023-04-29T12:30:58;8.03;;;5.20;;
9898;SDS011;4988;49.238;6.698;2023-04-29T12:33:26;8.70;;;4.90;;
9898;SDS011;4988;49.238;6.698;2023-04-29T12:35:55;9.43;;;5.10;;
9898;SDS011;4988;49.238;6.698;2023-04-29T12:38:22;7.83;;;4.83;;
9898;SDS011;4988;49.238;6.698;2023-04-29T12:40:51;7.93;;;4.90;;
9898;SDS011;4988;49.238;6.698;2023-04-29T12:43:17;10.87;;;5.80;;
9898;SDS011;4988;49.238;6.698;2023-04-29T12:45:43;8.10;;;4.83;;
9898;SDS011;4988;49.238;6.698;2023-04-29T12:48:08;8.03;;;4.70;;
9898;SDS011;4988;49.238;6.698;2023-04-29T12:50:36;8.77;;;4.10;;
9898;SDS011;4988;49.238;6.698;2023-04-29T12:53:03;7.67;;;4.70;;
9898;SDS011;4988;49.238;6.698;2023-04-29T12:55:30;6.90;;;4.00;;
9898;SDS011;4988;49.238;6.698;2023-04-29T12:57:58;7.57;;;5.60;;
9898;SDS011;4988;49.238;6.698;2023-04-29T13:00:23;7.30;;;4.23;;
9898;SDS011;4988;49.238;6.698;2023-04-29T13:02:49;7.20;;;4.10;;
9898;SDS011;4988;49.238;6.698;2023-04-29T13:05:14;5.63;;;4.07;;
9898;SDS011;4988;49.238;6.698;2023-04-29T13:07:39;8.37;;;4.57;;
9898;SDS011;4988;49.238;6.698;2023-04-29T13:10:06;7.13;;;4.60;;
9898;SDS011;4988;49.238;6.698;2023-04-29T13:12:32;6.77;;;4.57;;
9898;SDS011;4988;49.238;6.698;2023-04-29T13:14:57;7.37;;;4.80;;
9898;SDS011;4988;49.238;6.698;2023-04-29T13:17:22;7.73;;;3.90;;
9898;SDS011;4988;49.238;6.698;2023-04-29T13:19:48;8.20;;;4.50;;
9898;SDS011;4988;49.238;6.698;2023-04-29T13:22:14;8.37;;;5.30;;
9898;SDS011;4988;49.238;6.698;2023-04-29T13:24:40;6.33;;;4.10;;
9898;SDS011;4988;49.238;6.698;2023-04-29T13:27:05;5.17;;;3.50;;
9898;SDS011;4988;49.238;6.698;2023-04-29T13:29:30;6.93;;;3.87;;
9898;SDS011;4988;49.238;6.698;2023-04-29T13:31:56;5.83;;;3.77;;
9898;SDS011;4988;49.238;6.698;2023-04-29T13:34:21;6.10;;;4.27;;
9898;SDS011;4988;49.238;6.698;2023-04-29T13:36:46;5.70;;;3.87;;
9898;SDS011;4988;49.238;6.698;2023-04-29T13:39:12;6.47;;;4.20;;
9898;SDS011;4988;49.238;6.698;2023-04-29T13:41:37;7.37;;;3.70;;
9898;SDS011;4988;49.238;6.698;2023-04-29T13:44:03;6.87;;;3.70;;
9898;SDS011;4988;49.238;6.698;2023-04-29T13:46:28;7.10;;;4.60;;
9898;SDS011;4988;49.238;6.698;2023-04-29T13:48:53;5.67;;;3.87;;
9898;SDS011;4988;49.238;6.698;2023-04-29T13:51:19;4.90;;;3.70;;
9898;SDS011;4988;49.238;6.698;2023-04-29T13:53:45;7.27;;;4.00;;
9898;SDS011;4988;49.238;6.698;2023-04-29T13:56:10;6.73;;;4.00;;
9898;SDS011;4988;49.238;6.698;2023-04-29T13:58:35;5.73;;;3.90;;
9898;SDS011;4988;49.238;6.698;2023-04-29T14:01:01;5.63;;;3.93;;
9898;SDS011;4988;49.238;6.698;2023-04-29T14:03:26;5.27;;;3.60;;
9898;SDS011;4988;49.238;6.698;2023-04-29T14:05:52;5.03;;;3.57;;
9898;SDS011;4988;49.238;6.698;2023-04-29T14:08:17;6.00;;;4.03;;
9898;SDS011;4988;49.238;6.698;2023-04-29T14:10:42;5.33;;;3.67;;
9898;SDS011;4988;49.238;6.698;2023-04-29T14:13:08;5.07;;;3.57;;
9898;SDS011;4988;49.238;6.698;2023-04-29T14:15:33;5.73;;;3.67;;
9898;SDS011;4988;49.238;6.698;2023-04-29T14:17:58;7.63;;;5.60;;
9898;SDS011;4988;49.238;6.698;2023-04-29T14:20:24;6.50;;;4.20;;
9898;SDS011;4988;49.238;6.698;2023-04-29T14:22:49;7.87;;;5.33;;
9898;SDS011;4988;49.238;6.698;2023-04-29T14:25:15;5.87;;;4.13;;
9898;SDS011;4988;49.238;6.698;2023-04-29T14:27:40;6.27;;;4.00;;
9898;SDS011;4988;49.238;6.698;2023-04-29T14:30:05;7.23;;;4.70;;
9898;SDS011;4988;49.238;6.698;2023-04-29T14:32:31;5.20;;;3.63;;
9898;SDS011;4988;49.238;6.698;2023-04-29T14:34:56;6.03;;;4.10;;
9898;SDS011;4988;49.238;6.698;2023-04-29T14:37:22;6.00;;;4.10;;
9898;SDS011;4988;49.238;6.698;2023-04-29T14:39:47;6.23;;;3.90;;
9898;SDS011;4988;49.238;6.698;2023-04-29T14:42:13;6.10;;;3.90;;
9898;SDS011;4988;49.238;6.698;2023-04-29T14:44:39;5.93;;;3.90;;
9898;SDS011;4988;49.238;6.698;2023-04-29T14:47:04;5.10;;;4.10;;
9898;SDS011;4988;49.238;6.698;2023-04-29T14:49:29;5.53;;;4.10;;
9898;SDS011;4988;49.238;6.698;2023-04-29T14:51:55;7.23;;;4.40;;
9898;SDS011;4988;49.238;6.698;2023-04-29T14:54:20;9.07;;;6.37;;
9898;SDS011;4988;49.238;6.698;2023-04-29T14:56:46;8.03;;;4.30;;
9898;SDS011;4988;49.238;6.698;2023-04-29T14:59:11;5.93;;;3.97;;
9898;SDS011;4988;49.238;6.698;2023-04-29T15:01:36;9.53;;;4.67;;
9898;SDS011;4988;49.238;6.698;2023-04-29T15:04:03;5.40;;;3.90;;
9898;SDS011;4988;49.238;6.698;2023-04-29T15:06:29;7.73;;;4.73;;
9898;SDS011;4988;49.238;6.698;2023-04-29T15:08:56;8.30;;;5.03;;
9898;SDS011;4988;49.238;6.698;2023-04-29T15:11:21;11.60;;;4.50;;
9898;SDS011;4988;49.238;6.698;2023-04-29T15:13:46;7.33;;;4.73;;
9898;SDS011;4988;49.238;6.698;2023-04-29T15:16:12;5.70;;;4.37;;
9898;SDS011;4988;49.238;6.698;2023-04-29T15:18:37;8.20;;;5.40;;
9898;SDS011;4988;49.238;6.698;2023-04-29T15:21:03;7.83;;;5.23;;
9898;SDS011;4988;49.238;6.698;2023-04-29T15:23:28;6.83;;;5.10;;
9898;SDS011;4988;49.238;6.698;2023-04-29T15:25:55;8.20;;;4.73;;
9898;SDS011;4988;49.238;6.698;2023-04-29T15:28:20;7.97;;;4.80;;